sensor_id;sensor_type;location;lat;lon;timestamp;P1;durP1;ratioP1;P2;durP2;ratioP2
35743;SDS011;21867;52.012;4.324;2022-07-31T00:00:28;8.02;;;3.15;;
35743;SDS011;21867;52.012;4.324;2022-07-31T00:09:11;7.60;;;3.88;;
35743;SDS011;21867;52.012;4.324;2022-07-31T00:11:58;5.53;;;2.45;;
35743;SDS011;21867;52.012;4.324;2022-07-31T00:14:26;9.25;;;3.40;;
35743;SDS011;21867;52.012;4.324;2022-07-31T00:16:53;8.02;;;2.92;;
35743;SDS011;21867;52.012;4.324;2022-07-31T00:19:20;5.00;;;2.75;;
35743;SDS011;21867;52.012;4.324;2022-07-31T00:21:47;5.32;;;3.33;;
35743;SDS011;21867;52.012;4.324;2022-07-31T00:24:16;6.93;;;3.38;;
35743;SDS011;21867;52.012;4.324;2022-07-31T00:26:43;4.68;;;2.63;;
35743;SDS011;21867;52.012;4.324;2022-07-31T00:29:11;8.27;;;3.53;;
35743;SDS011;21867;52.012;4.324;2022-07-31T00:31:41;5.88;;;3.10;;
35743;SDS011;21867;52.012;4.324;2022-07-31T00:34:09;10.48;;;4.18;;
35743;SDS011;21867;52.012;4.324;2022-07-31T00:36:36;8.77;;;3.10;;
35743;SDS011;21867;52.012;4.324;2022-07-31T00:39:03;6.30;;;3.10;;
35743;SDS011;21867;52.012;4.324;2022-07-31T00:41:39;3.30;;;2.47;;
35743;SDS011;21867;52.012;4.324;2022-07-31T00:44:06;5.68;;;2.97;;
35743;SDS011;21867;52.012;4.324;2022-07-31T00:46:37;9.93;;;2.78;;
35743;SDS011;21867;52.012;4.324;2022-07-31T00:49:05;4.80;;;2.30;;
35743;SDS011;21867;52.012;4.324;2022-07-31T00:51:33;5.40;;;2.88;;
35743;SDS011;21867;52.012;4.324;2022-07-31T00:54:00;2.88;;;2.40;;
35743;SDS011;21867;52.012;4.324;2022-07-31T00:56:28;4.72;;;2.88;;
35743;SDS011;21867;52.012;4.324;2022-07-31T00:58:56;5.60;;;2.55;;
35743;SDS011;21867;52.012;4.324;2022-07-31T01:01:24;6.65;;;3.40;;
35743;SDS011;21867;52.012;4.324;2022-07-31T01:03:51;6.00;;;3.03;;
35743;SDS011;21867;52.012;4.324;2022-07-31T01:06:19;6.47;;;2.75;;
35743;SDS011;21867;52.012;4.324;2022-07-31T01:08:46;6.70;;;3.15;;
35743;SDS011;21867;52.012;4.324;2022-07-31T01:11:14;11.10;;;3.60;;
35743;SDS011;21867;52.012;4.324;2022-07-31T01:13:44;3.60;;;2.90;;
35743;SDS011;21867;52.012;4.324;2022-07-31T01:16:15;7.05;;;3.20;;
35743;SDS011;21867;52.012;4.324;2022-07-31T01:18:43;8.07;;;3.13;;
35743;SDS011;21867;52.012;4.324;2022-07-31T01:21:12;4.78;;;3.05;;
35743;SDS011;21867;52.012;4.324;2022-07-31T01:23:55;7.63;;;3.20;;
35743;SDS011;21867;52.012;4.324;2022-07-31T01:26:46;3.87;;;3.17;;
35743;SDS011;21867;52.012;4.324;2022-07-31T01:29:19;11.55;;;3.50;;
35743;SDS011;21867;52.012;4.324;2022-07-31T01:31:50;5.63;;;3.55;;
35743;SDS011;21867;52.012;4.324;2022-07-31T01:34:21;4.63;;;2.97;;
35743;SDS011;21867;52.012;4.324;2022-07-31T01:39:18;4.83;;;3.20;;
35743;SDS011;21867;52.012;4.324;2022-07-31T01:41:46;7.77;;;3.80;;
35743;SDS011;21867;52.012;4.324;2022-07-31T01:44:14;7.10;;;2.90;;
35743;SDS011;21867;52.012;4.324;2022-07-31T01:46:43;6.57;;;3.43;;
35743;SDS011;21867;52.012;4.324;2022-07-31T01:49:12;6.70;;;2.80;;
35743;SDS011;21867;52.012;4.324;2022-07-31T01:51:42;6.50;;;2.83;;
35743;SDS011;21867;52.012;4.324;2022-07-31T01:54:09;6.33;;;3.47;;
35743;SDS011;21867;52.012;4.324;2022-07-31T01:56:37;3.70;;;2.80;;
35743;SDS011;21867;52.012;4.324;2022-07-31T01:59:06;3.38;;;2.30;;
35743;SDS011;21867;52.012;4.324;2022-07-31T02:02:10;4.30;;;2.70;;
35743;SDS011;21867;52.012;4.324;2022-07-31T02:04:38;3.33;;;2.53;;
35743;SDS011;21867;52.012;4.324;2022-07-31T02:07:07;4.82;;;2.75;;
35743;SDS011;21867;52.012;4.324;2022-07-31T02:09:34;3.33;;;2.10;;
35743;SDS011;21867;52.012;4.324;2022-07-31T02:12:24;4.13;;;2.30;;
35743;SDS011;21867;52.012;4.324;2022-07-31T02:15:00;5.33;;;2.90;;
35743;SDS011;21867;52.012;4.324;2022-07-31T02:17:30;3.83;;;2.90;;
35743;SDS011;21867;52.012;4.324;2022-07-31T02:20:16;6.93;;;3.23;;
35743;SDS011;21867;52.012;4.324;2022-07-31T02:22:46;3.80;;;2.47;;
35743;SDS011;21867;52.012;4.324;2022-07-31T02:25:14;3.27;;;2.50;;
35743;SDS011;21867;52.012;4.324;2022-07-31T02:27:42;6.37;;;3.30;;
35743;SDS011;21867;52.012;4.324;2022-07-31T02:30:24;4.17;;;2.23;;
35743;SDS011;21867;52.012;4.324;2022-07-31T02:33:07;4.43;;;2.60;;
35743;SDS011;21867;52.012;4.324;2022-07-31T02:35:37;6.17;;;3.00;;
35743;SDS011;21867;52.012;4.324;2022-07-31T02:38:13;6.17;;;3.23;;
35743;SDS011;21867;52.012;4.324;2022-07-31T02:40:49;14.20;;;3.23;;
35743;SDS011;21867;52.012;4.324;2022-07-31T02:43:19;3.40;;;2.40;;
35743;SDS011;21867;52.012;4.324;2022-07-31T02:45:46;6.00;;;3.10;;
35743;SDS011;21867;52.012;4.324;2022-07-31T02:48:15;2.87;;;2.30;;
35743;SDS011;21867;52.012;4.324;2022-07-31T02:50:46;5.07;;;2.10;;
35743;SDS011;21867;52.012;4.324;2022-07-31T02:53:14;3.40;;;2.40;;
35743;SDS011;21867;52.012;4.324;2022-07-31T02:55:42;4.97;;;2.40;;
35743;SDS011;21867;52.012;4.324;2022-07-31T02:58:09;3.87;;;2.40;;
35743;SDS011;21867;52.012;4.324;2022-07-31T03:00:36;6.43;;;3.07;;
35743;SDS011;21867;52.012;4.324;2022-07-31T03:03:04;4.20;;;2.83;;
35743;SDS011;21867;52.012;4.324;2022-07-31T03:05:33;6.50;;;2.67;;
35743;SDS011;21867;52.012;4.324;2022-07-31T03:08:00;5.60;;;2.73;;
35743;SDS011;21867;52.012;4.324;2022-07-31T03:10:29;4.33;;;2.70;;
35743;SDS011;21867;52.012;4.324;2022-07-31T03:13:02;5.23;;;2.60;;
35743;SDS011;21867;52.012;4.324;2022-07-31T03:15:31;3.53;;;2.90;;
35743;SDS011;21867;52.012;4.324;2022-07-31T03:17:59;3.27;;;2.77;;
35743;SDS011;21867;52.012;4.324;2022-07-31T03:20:39;6.20;;;3.10;;
35743;SDS011;21867;52.012;4.324;2022-07-31T03:23:09;4.25;;;3.00;;
35743;SDS011;21867;52.012;4.324;2022-07-31T03:25:47;4.27;;;2.87;;
35743;SDS011;21867;52.012;4.324;2022-07-31T03:28:14;5.93;;;3.17;;
35743;SDS011;21867;52.012;4.324;2022-07-31T03:30:42;6.20;;;3.70;;
35743;SDS011;21867;52.012;4.324;2022-07-31T03:33:09;5.13;;;3.70;;
35743;SDS011;21867;52.012;4.324;2022-07-31T03:35:38;5.73;;;3.70;;
35743;SDS011;21867;52.012;4.324;2022-07-31T03:38:10;7.93;;;4.73;;
35743;SDS011;21867;52.012;4.324;2022-07-31T03:41:00;3.87;;;3.53;;
35743;SDS011;21867;52.012;4.324;2022-07-31T03:43:27;6.67;;;3.73;;
35743;SDS011;21867;52.012;4.324;2022-07-31T03:46:15;5.47;;;3.73;;
35743;SDS011;21867;52.012;4.324;2022-07-31T03:48:45;4.80;;;4.30;;
35743;SDS011;21867;52.012;4.324;2022-07-31T03:51:20;6.77;;;4.63;;
35743;SDS011;21867;52.012;4.324;2022-07-31T03:53:48;6.30;;;5.17;;
35743;SDS011;21867;52.012;4.324;2022-07-31T03:56:35;8.20;;;5.00;;
35743;SDS011;21867;52.012;4.324;2022-07-31T03:59:03;7.67;;;5.47;;
35743;SDS011;21867;52.012;4.324;2022-07-31T04:01:32;9.00;;;5.20;;
35743;SDS011;21867;52.012;4.324;2022-07-31T04:04:33;5.80;;;4.93;;
35743;SDS011;21867;52.012;4.324;2022-07-31T04:07:09;7.77;;;4.77;;
35743;SDS011;21867;52.012;4.324;2022-07-31T04:09:36;8.77;;;5.00;;
35743;SDS011;21867;52.012;4.324;2022-07-31T04:12:05;9.47;;;6.00;;
35743;SDS011;21867;52.012;4.324;2022-07-31T04:14:33;12.43;;;5.87;;
35743;SDS011;21867;52.012;4.324;2022-07-31T04:19:59;11.07;;;6.30;;
35743;SDS011;21867;52.012;4.324;2022-07-31T04:22:33;13.83;;;7.00;;
35743;SDS011;21867;52.012;4.324;2022-07-31T04:25:03;10.30;;;5.90;;
35743;SDS011;21867;52.012;4.324;2022-07-31T04:28:00;7.50;;;5.73;;
35743;SDS011;21867;52.012;4.324;2022-07-31T04:30:27;9.23;;;5.73;;
35743;SDS011;21867;52.012;4.324;2022-07-31T04:32:55;9.63;;;7.07;;
35743;SDS011;21867;52.012;4.324;2022-07-31T04:35:22;11.40;;;6.90;;
35743;SDS011;21867;52.012;4.324;2022-07-31T04:37:50;9.13;;;6.60;;
35743;SDS011;21867;52.012;4.324;2022-07-31T04:40:20;10.37;;;7.13;;
35743;SDS011;21867;52.012;4.324;2022-07-31T04:42:48;13.53;;;7.83;;
35743;SDS011;21867;52.012;4.324;2022-07-31T04:45:15;15.73;;;7.13;;
35743;SDS011;21867;52.012;4.324;2022-07-31T04:47:42;12.97;;;7.77;;
35743;SDS011;21867;52.012;4.324;2022-07-31T04:50:09;13.50;;;8.17;;
35743;SDS011;21867;52.012;4.324;2022-07-31T04:52:54;10.57;;;6.87;;
35743;SDS011;21867;52.012;4.324;2022-07-31T04:55:28;9.57;;;6.93;;
35743;SDS011;21867;52.012;4.324;2022-07-31T04:57:55;11.70;;;6.93;;
35743;SDS011;21867;52.012;4.324;2022-07-31T05:00:23;11.43;;;7.03;;
35743;SDS011;21867;52.012;4.324;2022-07-31T05:02:51;14.03;;;7.27;;
35743;SDS011;21867;52.012;4.324;2022-07-31T05:05:19;13.83;;;7.37;;
35743;SDS011;21867;52.012;4.324;2022-07-31T05:07:47;11.47;;;7.50;;
35743;SDS011;21867;52.012;4.324;2022-07-31T05:10:20;11.83;;;7.27;;
35743;SDS011;21867;52.012;4.324;2022-07-31T05:12:48;10.93;;;7.57;;
35743;SDS011;21867;52.012;4.324;2022-07-31T05:15:15;12.20;;;7.80;;
35743;SDS011;21867;52.012;4.324;2022-07-31T05:17:42;8.43;;;6.03;;
35743;SDS011;21867;52.012;4.324;2022-07-31T05:20:30;13.57;;;7.43;;
35743;SDS011;21867;52.012;4.324;2022-07-31T05:23:03;13.40;;;7.83;;
35743;SDS011;21867;52.012;4.324;2022-07-31T05:25:42;11.53;;;8.03;;
35743;SDS011;21867;52.012;4.324;2022-07-31T05:28:09;14.53;;;7.60;;
35743;SDS011;21867;52.012;4.324;2022-07-31T05:30:37;21.23;;;8.17;;
35743;SDS011;21867;52.012;4.324;2022-07-31T05:33:05;12.40;;;7.23;;
35743;SDS011;21867;52.012;4.324;2022-07-31T05:35:32;15.70;;;7.73;;
35743;SDS011;21867;52.012;4.324;2022-07-31T05:37:59;15.63;;;7.80;;
35743;SDS011;21867;52.012;4.324;2022-07-31T05:40:49;13.47;;;7.10;;
35743;SDS011;21867;52.012;4.324;2022-07-31T05:43:40;6.30;;;4.83;;
35743;SDS011;21867;52.012;4.324;2022-07-31T05:46:19;13.77;;;7.00;;
35743;SDS011;21867;52.012;4.324;2022-07-31T05:48:46;16.27;;;6.97;;
35743;SDS011;21867;52.012;4.324;2022-07-31T05:51:16;11.60;;;5.03;;
35743;SDS011;21867;52.012;4.324;2022-07-31T05:53:45;14.87;;;7.87;;
35743;SDS011;21867;52.012;4.324;2022-07-31T05:56:32;14.27;;;7.63;;
35743;SDS011;21867;52.012;4.324;2022-07-31T05:59:00;17.33;;;8.70;;
35743;SDS011;21867;52.012;4.324;2022-07-31T06:01:28;15.43;;;8.07;;
35743;SDS011;21867;52.012;4.324;2022-07-31T06:03:55;12.40;;;7.27;;
35743;SDS011;21867;52.012;4.324;2022-07-31T06:06:30;17.10;;;7.53;;
35743;SDS011;21867;52.012;4.324;2022-07-31T06:08:58;16.30;;;7.80;;
35743;SDS011;21867;52.012;4.324;2022-07-31T06:11:35;12.27;;;6.60;;
35743;SDS011;21867;52.012;4.324;2022-07-31T06:14:02;16.17;;;8.30;;
35743;SDS011;21867;52.012;4.324;2022-07-31T06:16:54;17.27;;;8.87;;
35743;SDS011;21867;52.012;4.324;2022-07-31T06:19:21;12.43;;;8.60;;
35743;SDS011;21867;52.012;4.324;2022-07-31T06:21:50;12.07;;;7.17;;
35743;SDS011;21867;52.012;4.324;2022-07-31T06:24:20;11.23;;;7.80;;
35743;SDS011;21867;52.012;4.324;2022-07-31T06:26:49;17.60;;;9.17;;
35743;SDS011;21867;52.012;4.324;2022-07-31T06:29:16;16.33;;;9.73;;
35743;SDS011;21867;52.012;4.324;2022-07-31T06:32:04;18.10;;;9.53;;
35743;SDS011;21867;52.012;4.324;2022-07-31T06:34:32;17.33;;;9.20;;
35743;SDS011;21867;52.012;4.324;2022-07-31T06:36:59;20.43;;;8.67;;
35743;SDS011;21867;52.012;4.324;2022-07-31T06:39:27;14.33;;;8.97;;
35743;SDS011;21867;52.012;4.324;2022-07-31T06:42:38;12.93;;;8.03;;
35743;SDS011;21867;52.012;4.324;2022-07-31T06:45:06;13.93;;;7.83;;
35743;SDS011;21867;52.012;4.324;2022-07-31T06:47:48;12.60;;;8.00;;
35743;SDS011;21867;52.012;4.324;2022-07-31T06:50:26;15.23;;;8.80;;
35743;SDS011;21867;52.012;4.324;2022-07-31T06:53:08;14.13;;;8.33;;
35743;SDS011;21867;52.012;4.324;2022-07-31T06:55:36;17.60;;;8.60;;
35743;SDS011;21867;52.012;4.324;2022-07-31T06:58:11;19.93;;;9.50;;
35743;SDS011;21867;52.012;4.324;2022-07-31T07:00:38;20.73;;;8.80;;
35743;SDS011;21867;52.012;4.324;2022-07-31T07:03:05;17.40;;;8.33;;
35743;SDS011;21867;52.012;4.324;2022-07-31T07:05:33;17.73;;;7.63;;
35743;SDS011;21867;52.012;4.324;2022-07-31T07:08:01;16.50;;;9.07;;
35743;SDS011;21867;52.012;4.324;2022-07-31T07:10:30;16.10;;;8.57;;
35743;SDS011;21867;52.012;4.324;2022-07-31T07:12:58;20.50;;;8.77;;
35743;SDS011;21867;52.012;4.324;2022-07-31T07:15:30;11.83;;;7.40;;
35743;SDS011;21867;52.012;4.324;2022-07-31T07:17:57;17.90;;;8.40;;
35743;SDS011;21867;52.012;4.324;2022-07-31T07:20:41;15.33;;;8.93;;
35743;SDS011;21867;52.012;4.324;2022-07-31T07:23:08;13.93;;;7.60;;
35743;SDS011;21867;52.012;4.324;2022-07-31T07:25:44;15.83;;;8.33;;
35743;SDS011;21867;52.012;4.324;2022-07-31T07:28:13;17.07;;;8.70;;
35743;SDS011;21867;52.012;4.324;2022-07-31T07:30:59;17.73;;;8.83;;
35743;SDS011;21867;52.012;4.324;2022-07-31T07:33:28;15.40;;;8.80;;
35743;SDS011;21867;52.012;4.324;2022-07-31T07:36:10;12.83;;;6.97;;
35743;SDS011;21867;52.012;4.324;2022-07-31T07:38:54;18.93;;;8.53;;
35743;SDS011;21867;52.012;4.324;2022-07-31T07:41:22;14.50;;;7.43;;
35743;SDS011;21867;52.012;4.324;2022-07-31T07:43:49;16.30;;;8.83;;
35743;SDS011;21867;52.012;4.324;2022-07-31T07:46:21;16.70;;;7.50;;
35743;SDS011;21867;52.012;4.324;2022-07-31T07:48:52;18.43;;;8.63;;
35743;SDS011;21867;52.012;4.324;2022-07-31T07:51:34;11.93;;;7.43;;
35743;SDS011;21867;52.012;4.324;2022-07-31T07:54:29;17.87;;;7.93;;
35743;SDS011;21867;52.012;4.324;2022-07-31T07:57:22;14.70;;;7.73;;
35743;SDS011;21867;52.012;4.324;2022-07-31T07:59:52;10.73;;;8.80;;
35743;SDS011;21867;52.012;4.324;2022-07-31T08:02:41;14.23;;;7.77;;
35743;SDS011;21867;52.012;4.324;2022-07-31T08:05:10;16.07;;;7.10;;
35743;SDS011;21867;52.012;4.324;2022-07-31T08:07:38;14.17;;;7.63;;
35743;SDS011;21867;52.012;4.324;2022-07-31T08:10:28;12.33;;;6.63;;
35743;SDS011;21867;52.012;4.324;2022-07-31T08:13:07;12.70;;;7.57;;
35743;SDS011;21867;52.012;4.324;2022-07-31T08:15:53;13.50;;;7.20;;
35743;SDS011;21867;52.012;4.324;2022-07-31T08:18:45;14.47;;;8.07;;
35743;SDS011;21867;52.012;4.324;2022-07-31T08:21:12;10.33;;;6.73;;
35743;SDS011;21867;52.012;4.324;2022-07-31T08:23:40;10.63;;;6.67;;
35743;SDS011;21867;52.012;4.324;2022-07-31T08:26:07;14.53;;;7.50;;
35743;SDS011;21867;52.012;4.324;2022-07-31T08:31:26;17.53;;;8.97;;
35743;SDS011;21867;52.012;4.324;2022-07-31T08:34:13;12.03;;;8.17;;
35743;SDS011;21867;52.012;4.324;2022-07-31T08:36:59;11.37;;;7.67;;
35743;SDS011;21867;52.012;4.324;2022-07-31T08:39:47;12.00;;;7.47;;
35743;SDS011;21867;52.012;4.324;2022-07-31T08:42:15;10.30;;;8.47;;
35743;SDS011;21867;52.012;4.324;2022-07-31T08:44:43;12.00;;;8.70;;
35743;SDS011;21867;52.012;4.324;2022-07-31T08:47:14;16.60;;;11.37;;
35743;SDS011;21867;52.012;4.324;2022-07-31T08:49:47;16.90;;;9.17;;
35743;SDS011;21867;52.012;4.324;2022-07-31T08:52:15;17.03;;;11.60;;
35743;SDS011;21867;52.012;4.324;2022-07-31T08:54:55;15.53;;;11.10;;
35743;SDS011;21867;52.012;4.324;2022-07-31T08:57:23;17.70;;;10.27;;
35743;SDS011;21867;52.012;4.324;2022-07-31T08:59:50;17.57;;;13.23;;
35743;SDS011;21867;52.012;4.324;2022-07-31T09:02:18;17.40;;;12.13;;
35743;SDS011;21867;52.012;4.324;2022-07-31T09:05:05;17.40;;;13.70;;
35743;SDS011;21867;52.012;4.324;2022-07-31T09:07:32;20.90;;;12.73;;
35743;SDS011;21867;52.012;4.324;2022-07-31T09:09:59;11.77;;;9.70;;
35743;SDS011;21867;52.012;4.324;2022-07-31T09:12:28;22.40;;;13.47;;
35743;SDS011;21867;52.012;4.324;2022-07-31T09:15:03;18.80;;;13.53;;
35743;SDS011;21867;52.012;4.324;2022-07-31T09:17:31;19.17;;;13.10;;
35743;SDS011;21867;52.012;4.324;2022-07-31T09:19:59;18.20;;;12.50;;
35743;SDS011;21867;52.012;4.324;2022-07-31T09:22:33;15.80;;;12.60;;
35743;SDS011;21867;52.012;4.324;2022-07-31T09:25:06;25.73;;;13.33;;
35743;SDS011;21867;52.012;4.324;2022-07-31T09:27:33;13.87;;;12.43;;
35743;SDS011;21867;52.012;4.324;2022-07-31T09:30:01;16.63;;;12.10;;
35743;SDS011;21867;52.012;4.324;2022-07-31T09:32:46;8.93;;;7.57;;
35743;SDS011;21867;52.012;4.324;2022-07-31T09:35:20;11.40;;;10.13;;
35743;SDS011;21867;52.012;4.324;2022-07-31T09:37:49;12.67;;;8.70;;
35743;SDS011;21867;52.012;4.324;2022-07-31T09:40:53;6.83;;;4.83;;
35743;SDS011;21867;52.012;4.324;2022-07-31T09:43:52;10.40;;;6.87;;
35743;SDS011;21867;52.012;4.324;2022-07-31T09:46:19;11.07;;;7.17;;
35743;SDS011;21867;52.012;4.324;2022-07-31T09:49:06;12.80;;;8.20;;
35743;SDS011;21867;52.012;4.324;2022-07-31T09:51:37;11.87;;;6.40;;
35743;SDS011;21867;52.012;4.324;2022-07-31T09:54:12;15.97;;;6.97;;
35743;SDS011;21867;52.012;4.324;2022-07-31T09:56:57;9.90;;;5.77;;
35743;SDS011;21867;52.012;4.324;2022-07-31T09:59:30;14.17;;;6.47;;
35743;SDS011;21867;52.012;4.324;2022-07-31T10:01:58;13.97;;;6.10;;
35743;SDS011;21867;52.012;4.324;2022-07-31T10:04:26;7.23;;;4.50;;
35743;SDS011;21867;52.012;4.324;2022-07-31T10:06:54;9.80;;;5.23;;
35743;SDS011;21867;52.012;4.324;2022-07-31T10:09:23;8.83;;;4.70;;
35743;SDS011;21867;52.012;4.324;2022-07-31T10:12:05;10.97;;;4.17;;
35743;SDS011;21867;52.012;4.324;2022-07-31T10:14:34;10.50;;;5.10;;
35743;SDS011;21867;52.012;4.324;2022-07-31T10:17:04;7.93;;;3.77;;
35743;SDS011;21867;52.012;4.324;2022-07-31T10:19:45;14.50;;;4.50;;
35743;SDS011;21867;52.012;4.324;2022-07-31T10:22:23;7.13;;;3.70;;
35743;SDS011;21867;52.012;4.324;2022-07-31T10:24:52;4.73;;;2.50;;
35743;SDS011;21867;52.012;4.324;2022-07-31T10:27:21;8.23;;;3.10;;
35743;SDS011;21867;52.012;4.324;2022-07-31T10:29:56;7.60;;;3.50;;
35743;SDS011;21867;52.012;4.324;2022-07-31T10:32:24;6.93;;;3.30;;
35743;SDS011;21867;52.012;4.324;2022-07-31T10:35:23;6.63;;;3.30;;
35743;SDS011;21867;52.012;4.324;2022-07-31T10:38:00;6.23;;;3.67;;
35743;SDS011;21867;52.012;4.324;2022-07-31T10:40:53;14.57;;;4.67;;
35743;SDS011;21867;52.012;4.324;2022-07-31T10:43:22;9.80;;;4.17;;
35743;SDS011;21867;52.012;4.324;2022-07-31T10:46:13;9.40;;;4.40;;
35743;SDS011;21867;52.012;4.324;2022-07-31T10:55:19;9.00;;;4.23;;
35743;SDS011;21867;52.012;4.324;2022-07-31T10:58:07;7.13;;;2.90;;
35743;SDS011;21867;52.012;4.324;2022-07-31T11:00:50;7.90;;;4.03;;
35743;SDS011;21867;52.012;4.324;2022-07-31T11:03:21;8.77;;;3.97;;
35743;SDS011;21867;52.012;4.324;2022-07-31T11:06:07;6.67;;;3.87;;
35743;SDS011;21867;52.012;4.324;2022-07-31T11:08:53;10.10;;;4.63;;
35743;SDS011;21867;52.012;4.324;2022-07-31T11:11:44;11.83;;;3.67;;
35743;SDS011;21867;52.012;4.324;2022-07-31T11:14:41;13.77;;;4.40;;
35743;SDS011;21867;52.012;4.324;2022-07-31T11:17:30;4.93;;;3.30;;
35743;SDS011;21867;52.012;4.324;2022-07-31T11:20:23;10.73;;;4.17;;
35743;SDS011;21867;52.012;4.324;2022-07-31T11:25:40;8.00;;;4.57;;
35743;SDS011;21867;52.012;4.324;2022-07-31T11:28:09;5.07;;;3.30;;
35743;SDS011;21867;52.012;4.324;2022-07-31T11:30:47;7.53;;;3.47;;
35743;SDS011;21867;52.012;4.324;2022-07-31T11:33:14;5.70;;;2.93;;
35743;SDS011;21867;52.012;4.324;2022-07-31T11:35:41;5.57;;;3.73;;
35743;SDS011;21867;52.012;4.324;2022-07-31T11:38:08;5.67;;;2.90;;
35743;SDS011;21867;52.012;4.324;2022-07-31T11:40:36;5.60;;;3.50;;
35743;SDS011;21867;52.012;4.324;2022-07-31T11:43:06;7.03;;;3.77;;
35743;SDS011;21867;52.012;4.324;2022-07-31T11:45:53;6.20;;;3.10;;
35743;SDS011;21867;52.012;4.324;2022-07-31T11:48:22;9.83;;;4.10;;
35743;SDS011;21867;52.012;4.324;2022-07-31T11:50:53;2.90;;;2.00;;
35743;SDS011;21867;52.012;4.324;2022-07-31T11:53:20;6.93;;;3.33;;
35743;SDS011;21867;52.012;4.324;2022-07-31T11:55:48;7.43;;;2.70;;
35743;SDS011;21867;52.012;4.324;2022-07-31T11:58:17;8.77;;;3.97;;
35743;SDS011;21867;52.012;4.324;2022-07-31T12:00:45;9.07;;;3.67;;
35743;SDS011;21867;52.012;4.324;2022-07-31T12:03:14;8.20;;;4.10;;
35743;SDS011;21867;52.012;4.324;2022-07-31T12:05:42;8.13;;;3.33;;
35743;SDS011;21867;52.012;4.324;2022-07-31T12:08:09;11.20;;;3.87;;
35743;SDS011;21867;52.012;4.324;2022-07-31T12:10:37;8.38;;;4.32;;
35743;SDS011;21867;52.012;4.324;2022-07-31T12:13:08;5.73;;;2.97;;
35743;SDS011;21867;52.012;4.324;2022-07-31T12:15:41;12.87;;;3.33;;
35743;SDS011;21867;52.012;4.324;2022-07-31T12:18:20;12.50;;;4.03;;
35743;SDS011;21867;52.012;4.324;2022-07-31T12:20:50;5.40;;;2.73;;
35743;SDS011;21867;52.012;4.324;2022-07-31T12:23:18;6.23;;;3.10;;
35743;SDS011;21867;52.012;4.324;2022-07-31T12:26:05;8.63;;;3.13;;
35743;SDS011;21867;52.012;4.324;2022-07-31T12:28:33;6.67;;;3.20;;
35743;SDS011;21867;52.012;4.324;2022-07-31T12:31:00;8.57;;;3.70;;
35743;SDS011;21867;52.012;4.324;2022-07-31T12:33:47;11.27;;;3.83;;
35743;SDS011;21867;52.012;4.324;2022-07-31T12:36:14;8.50;;;4.13;;
35743;SDS011;21867;52.012;4.324;2022-07-31T12:38:42;14.70;;;3.50;;
35743;SDS011;21867;52.012;4.324;2022-07-31T12:41:14;9.07;;;3.57;;
35743;SDS011;21867;52.012;4.324;2022-07-31T12:43:41;6.33;;;3.53;;
35743;SDS011;21867;52.012;4.324;2022-07-31T12:46:21;10.67;;;4.47;;
35743;SDS011;21867;52.012;4.324;2022-07-31T12:48:50;10.70;;;4.93;;
35743;SDS011;21867;52.012;4.324;2022-07-31T12:51:17;10.17;;;4.43;;
35743;SDS011;21867;52.012;4.324;2022-07-31T12:54:05;10.73;;;4.30;;
35743;SDS011;21867;52.012;4.324;2022-07-31T12:56:33;11.63;;;5.10;;
35743;SDS011;21867;52.012;4.324;2022-07-31T12:59:00;8.20;;;3.40;;
35743;SDS011;21867;52.012;4.324;2022-07-31T13:01:27;9.30;;;3.50;;
35743;SDS011;21867;52.012;4.324;2022-07-31T13:03:56;13.97;;;4.57;;
35743;SDS011;21867;52.012;4.324;2022-07-31T13:06:25;11.30;;;4.17;;
35743;SDS011;21867;52.012;4.324;2022-07-31T13:08:53;16.03;;;4.23;;
35743;SDS011;21867;52.012;4.324;2022-07-31T13:11:20;11.87;;;3.90;;
35743;SDS011;21867;52.012;4.324;2022-07-31T13:13:47;9.90;;;4.07;;
35743;SDS011;21867;52.012;4.324;2022-07-31T13:16:15;9.87;;;4.47;;
35743;SDS011;21867;52.012;4.324;2022-07-31T13:18:42;8.23;;;4.00;;
35743;SDS011;21867;52.012;4.324;2022-07-31T13:21:11;7.27;;;3.97;;
35743;SDS011;21867;52.012;4.324;2022-07-31T13:23:38;10.60;;;4.70;;
35743;SDS011;21867;52.012;4.324;2022-07-31T13:26:05;7.73;;;3.90;;
35743;SDS011;21867;52.012;4.324;2022-07-31T13:28:32;9.80;;;3.80;;
35743;SDS011;21867;52.012;4.324;2022-07-31T13:31:00;6.37;;;3.40;;
35743;SDS011;21867;52.012;4.324;2022-07-31T13:33:27;5.67;;;3.00;;
35743;SDS011;21867;52.012;4.324;2022-07-31T13:35:55;8.50;;;3.70;;
35743;SDS011;21867;52.012;4.324;2022-07-31T13:38:23;9.93;;;4.13;;
35743;SDS011;21867;52.012;4.324;2022-07-31T13:40:50;10.77;;;4.03;;
35743;SDS011;21867;52.012;4.324;2022-07-31T13:43:18;9.00;;;3.70;;
35743;SDS011;21867;52.012;4.324;2022-07-31T13:45:45;11.37;;;4.70;;
35743;SDS011;21867;52.012;4.324;2022-07-31T13:48:12;12.67;;;4.03;;
35743;SDS011;21867;52.012;4.324;2022-07-31T13:50:39;8.83;;;4.00;;
35743;SDS011;21867;52.012;4.324;2022-07-31T13:53:07;11.57;;;3.87;;
35743;SDS011;21867;52.012;4.324;2022-07-31T13:55:35;10.37;;;4.07;;
35743;SDS011;21867;52.012;4.324;2022-07-31T13:58:03;12.10;;;4.60;;
35743;SDS011;21867;52.012;4.324;2022-07-31T14:00:30;15.03;;;4.47;;
35743;SDS011;21867;52.012;4.324;2022-07-31T14:02:58;12.10;;;3.93;;
35743;SDS011;21867;52.012;4.324;2022-07-31T14:05:25;12.30;;;5.00;;
35743;SDS011;21867;52.012;4.324;2022-07-31T14:07:53;11.90;;;5.03;;
35743;SDS011;21867;52.012;4.324;2022-07-31T14:10:20;11.83;;;4.17;;
35743;SDS011;21867;52.012;4.324;2022-07-31T14:12:49;8.43;;;4.93;;
35743;SDS011;21867;52.012;4.324;2022-07-31T14:15:16;9.50;;;4.13;;
35743;SDS011;21867;52.012;4.324;2022-07-31T14:17:44;7.90;;;4.37;;
35743;SDS011;21867;52.012;4.324;2022-07-31T14:20:11;9.23;;;3.80;;
35743;SDS011;21867;52.012;4.324;2022-07-31T14:22:38;12.10;;;4.53;;
35743;SDS011;21867;52.012;4.324;2022-07-31T14:25:06;11.53;;;4.40;;
35743;SDS011;21867;52.012;4.324;2022-07-31T14:27:33;14.77;;;4.23;;
35743;SDS011;21867;52.012;4.324;2022-07-31T14:30:02;8.33;;;3.47;;
35743;SDS011;21867;52.012;4.324;2022-07-31T14:32:30;12.87;;;4.30;;
35743;SDS011;21867;52.012;4.324;2022-07-31T14:34:57;9.80;;;3.60;;
35743;SDS011;21867;52.012;4.324;2022-07-31T14:37:29;12.40;;;4.60;;
35743;SDS011;21867;52.012;4.324;2022-07-31T14:39:57;12.67;;;4.70;;
35743;SDS011;21867;52.012;4.324;2022-07-31T14:42:24;10.10;;;4.07;;
35743;SDS011;21867;52.012;4.324;2022-07-31T14:44:52;10.97;;;3.67;;
35743;SDS011;21867;52.012;4.324;2022-07-31T14:47:20;14.43;;;4.53;;
35743;SDS011;21867;52.012;4.324;2022-07-31T14:49:48;11.23;;;4.43;;
35743;SDS011;21867;52.012;4.324;2022-07-31T14:52:33;6.30;;;3.43;;
35743;SDS011;21867;52.012;4.324;2022-07-31T14:55:00;12.43;;;4.40;;
35743;SDS011;21867;52.012;4.324;2022-07-31T14:57:28;9.23;;;4.17;;
35743;SDS011;21867;52.012;4.324;2022-07-31T14:59:55;9.90;;;4.73;;
35743;SDS011;21867;52.012;4.324;2022-07-31T15:02:23;12.53;;;4.13;;
35743;SDS011;21867;52.012;4.324;2022-07-31T15:04:51;12.80;;;4.23;;
35743;SDS011;21867;52.012;4.324;2022-07-31T15:07:19;14.37;;;4.97;;
35743;SDS011;21867;52.012;4.324;2022-07-31T15:10:06;9.80;;;3.70;;
35743;SDS011;21867;52.012;4.324;2022-07-31T15:12:34;11.15;;;3.80;;
35743;SDS011;21867;52.012;4.324;2022-07-31T15:15:02;11.80;;;4.60;;
35743;SDS011;21867;52.012;4.324;2022-07-31T15:17:31;12.40;;;4.47;;
35743;SDS011;21867;52.012;4.324;2022-07-31T15:19:58;9.90;;;3.70;;
35743;SDS011;21867;52.012;4.324;2022-07-31T15:22:25;12.83;;;4.53;;
35743;SDS011;21867;52.012;4.324;2022-07-31T15:24:53;11.07;;;4.23;;
35743;SDS011;21867;52.012;4.324;2022-07-31T15:27:20;13.60;;;4.57;;
35743;SDS011;21867;52.012;4.324;2022-07-31T15:29:47;15.77;;;5.23;;
35743;SDS011;21867;52.012;4.324;2022-07-31T15:32:32;13.87;;;4.60;;
35743;SDS011;21867;52.012;4.324;2022-07-31T15:35:00;9.87;;;3.93;;